Time;durP1;ratioP1;P1;durP2;ratioP2;P2;SDS_P1;SDS_P2;PMS_P1;PMS_P2;Temp;Humidity;BMP_temperature;BMP_pressure;BME280_temperature;BME280_humidity;BME280_pressure;Samples;Min_cycle;Max_cycle;Signal;HPM_P1;HPM_P2
2021/07/23 00:02:13;;;;;;;;;9.00;8.67;;;;;22.11;58.75;98751.84;4853737;28;103293;-82
2021/07/23 00:04:40;;;;;;;;;9.00;8.00;;;;;22.10;58.40;98748.25;4862404;28;102674;-82
2021/07/23 00:07:07;;;;;;;;;10.67;9.33;;;;;22.06;58.46;98749.06;4865814;28;104083;-82
2021/07/23 00:09:37;;;;;;;;;7.00;6.00;;;;;22.00;59.23;98748.22;4866925;28;102343;-82
2021/07/23 00:12:10;;;;;;;;;10.00;10.00;;;;;22.01;58.89;98744.38;4862031;28;105669;-82
2021/07/23 00:14:47;;;;;;;;;10.00;10.00;;;;;22.04;58.80;98754.84;4867648;28;102779;-83
2021/07/23 00:17:20;;;;;;;;;9.33;8.00;;;;;21.99;59.00;98749.31;4870057;28;103754;-82
2021/07/23 00:19:54;;;;;;;;;8.33;8.00;;;;;21.98;59.14;98744.91;4879833;28;102133;-82
2021/07/23 00:22:30;;;;;;;;;10.00;10.00;;;;;22.00;58.34;98750.13;4874368;28;102440;-82
2021/07/23 00:25:03;;;;;;;;;10.33;9.00;;;;;22.02;58.57;98745.19;4866053;28;103126;-82
2021/07/23 00:27:36;;;;;;;;;9.67;9.33;;;;;21.98;58.60;98747.66;4861359;28;103816;-82
2021/07/23 00:30:14;;;;;;;;;9.67;9.00;;;;;21.95;58.21;98741.88;4863274;28;104356;-82
2021/07/23 00:32:48;;;;;;;;;10.00;8.00;;;;;21.97;58.88;98734.16;4856658;28;102552;-82
2021/07/23 00:35:24;;;;;;;;;7.67;7.67;;;;;21.92;58.40;98737.72;4847495;28;104083;-82
2021/07/23 00:37:57;;;;;;;;;8.33;7.67;;;;;21.93;58.53;98744.88;4847657;28;111284;-82
2021/07/23 00:40:29;;;;;;;;;6.67;4.00;;;;;21.93;58.91;98736.63;4845546;28;105264;-82
2021/07/23 00:43:01;;;;;;;;;9.33;9.33;;;;;21.93;58.37;98730.31;4857447;28;104799;-82
2021/07/23 00:45:32;;;;;;;;;11.00;8.00;;;;;21.94;58.78;98727.25;4860229;28;103072;-82
2021/07/23 00:48:01;;;;;;;;;10.00;9.00;;;;;21.94;58.05;98731.94;4839083;28;103130;-82
2021/07/23 00:50:31;;;;;;;;;9.00;9.00;;;;;21.89;58.00;98727.22;4826209;28;109554;-82
2021/07/23 00:52:58;;;;;;;;;11.00;10.00;;;;;21.86;58.31;98732.44;4855540;28;102730;-83
2021/07/23 00:55:26;;;;;;;;;12.33;9.67;;;;;21.87;57.82;98732.19;4854951;28;103772;-82
2021/07/23 00:57:54;;;;;;;;;8.00;8.00;;;;;21.85;58.14;98728.84;4849770;28;105421;-82
2021/07/23 01:00:21;;;;;;;;;10.33;9.00;;;;;21.85;58.67;98730.78;4851399;28;102693;-82
2021/07/23 01:02:48;;;;;;;;;8.67;8.00;;;;;21.85;58.11;98728.84;4818943;28;102308;-82
2021/07/23 01:05:15;;;;;;;;;8.33;8.33;;;;;21.86;57.89;98730.53;4816927;28;102607;-83
2021/07/23 01:07:43;;;;;;;;;9.67;8.33;;;;;21.84;58.07;98727.19;4798055;28;104145;-83
2021/07/23 01:10:10;;;;;;;;;7.67;7.67;;;;;21.84;57.90;98724.44;4843019;28;105170;-84
2021/07/23 01:12:42;;;;;;;;;9.67;9.00;;;;;21.82;58.06;98721.16;4849961;28;104286;-82
2021/07/23 01:15:15;;;;;;;;;10.00;9.00;;;;;21.81;58.08;98730.50;4849430;28;102994;-83
2021/07/23 01:17:48;;;;;;;;;7.00;7.00;;;;;21.82;58.34;98726.66;4858580;28;103838;-83
2021/07/23 01:20:27;;;;;;;;;8.00;8.00;;;;;21.82;58.08;98726.66;4829883;28;111288;-83
2021/07/23 01:23:01;;;;;;;;;10.33;9.33;;;;;21.79;58.09;98721.69;4816502;28;102512;-83
2021/07/23 01:25:36;;;;;;;;;9.00;8.33;;;;;21.76;58.43;98723.06;4822114;28;105988;-82
2021/07/23 01:28:09;;;;;;;;;8.33;8.33;;;;;21.79;57.85;98716.19;4828807;28;103935;-83
2021/07/23 01:30:42;;;;;;;;;10.00;8.33;;;;;21.79;57.91;98718.94;4803431;28;102680;-83
2021/07/23 01:33:16;;;;;;;;;9.00;8.00;;;;;21.72;58.18;98718.34;4826108;28;104246;-83
2021/07/23 01:35:51;;;;;;;;;9.00;7.67;;;;;21.74;58.37;98722.50;4843843;28;102777;-83
2021/07/23 01:38:29;;;;;;;;;9.33;8.00;;;;;21.74;57.61;98713.41;4828989;28;103635;-83
2021/07/23 01:41:03;;;;;;;;;7.00;7.00;;;;;21.76;57.67;98717.53;4849823;28;102633;-83
2021/07/23 01:43:38;;;;;;;;;7.00;7.00;;;;;21.79;57.71;98713.44;4842841;28;103101;-82
2021/07/23 01:46:15;;;;;;;;;9.67;9.00;;;;;21.77;57.65;98712.88;4831609;28;103247;-83
2021/07/23 01:48:49;;;;;;;;;11.00;8.33;;;;;21.76;58.11;98713.97;4840111;28;104042;-83
2021/07/23 01:51:24;;;;;;;;;9.67;9.00;;;;;21.72;57.88;98712.84;4849303;28;102593;-83
2021/07/23 01:53:55;;;;;;;;;11.33;10.00;;;;;21.72;57.81;98712.84;4868034;28;102664;-83
2021/07/23 01:56:22;;;;;;;;;9.33;8.67;;;;;21.72;57.91;98704.59;4865424;28;103833;-83
2021/07/23 01:58:50;;;;;;;;;8.33;8.00;;;;;21.75;57.80;98709.56;4851936;28;104164;-83
2021/07/23 02:01:17;;;;;;;;;8.33;8.00;;;;;21.72;57.96;98710.94;4852499;28;102597;-83
2021/07/23 02:03:44;;;;;;;;;9.33;9.00;;;;;21.71;58.09;98702.94;4835264;28;103094;-83
2021/07/23 02:06:11;;;;;;;;;11.33;9.33;;;;;21.72;57.14;98699.09;4857225;28;102502;-83
2021/07/23 02:08:38;;;;;;;;;9.00;7.67;;;;;21.76;57.76;98705.72;4863034;28;104368;-83
2021/07/23 02:11:06;;;;;;;;;7.33;7.00;;;;;21.76;57.55;98702.94;4857185;28;102565;-83
2021/07/23 02:13:33;;;;;;;;;9.00;8.33;;;;;21.74;58.08;98700.50;4862641;28;102327;-83
2021/07/23 02:16:06;;;;;;;;;10.33;9.00;;;;;21.73;57.72;98711.75;4861006;28;102941;-83
2021/07/23 02:18:34;;;;;;;;;7.00;7.00;;;;;21.72;57.63;98699.91;4849931;28;109416;-81
2021/07/23 02:21:05;;;;;;;;;11.67;9.33;;;;;21.70;57.81;98704.84;4857024;28;102582;-82
2021/07/23 02:23:33;;;;;;;;;10.00;9.00;;;;;21.70;57.89;98712.31;4865960;28;103356;-82
2021/07/23 02:26:00;;;;;;;;;8.67;8.33;;;;;21.68;57.70;98709.81;4856869;28;102868;-82
2021/07/23 02:28:27;;;;;;;;;10.67;10.67;;;;;21.64;57.98;98705.13;4856245;28;104132;-83
2021/07/23 02:30:54;;;;;;;;;10.67;9.33;;;;;21.60;58.00;98706.75;4873184;28;103185;-83
2021/07/23 02:33:21;;;;;;;;;10.00;10.00;;;;;21.61;57.83;98711.19;4868354;28;105743;-83
2021/07/23 02:35:49;;;;;;;;;8.67;8.33;;;;;21.61;57.48;98702.94;4883424;28;102640;-82
2021/07/23 02:38:16;;;;;;;;;8.00;6.00;;;;;21.60;57.74;98713.09;4855365;28;104180;-81
2021/07/23 02:40:43;;;;;;;;;10.67;10.00;;;;;21.62;58.06;98704.56;4873235;28;103150;-82
2021/07/23 02:43:10;;;;;;;;;10.00;9.33;;;;;21.60;58.04;98696.59;4884047;28;102739;-81
2021/07/23 02:45:37;;;;;;;;;9.33;9.33;;;;;21.62;57.70;98699.06;4875236;28;103821;-81
2021/07/23 02:48:05;;;;;;;;;9.00;7.67;;;;;21.60;58.13;98698.50;4875805;28;104431;-82
2021/07/23 02:50:33;;;;;;;;;10.00;8.00;;;;;21.58;58.62;98703.44;4881123;28;104624;-82
2021/07/23 02:53:00;;;;;;;;;8.00;8.00;;;;;21.60;57.91;98701.25;4882632;28;103573;-82
2021/07/23 02:55:29;;;;;;;;;8.67;8.00;;;;;21.56;57.43;98698.22;4883952;28;103178;-82
2021/07/23 02:57:56;;;;;;;;;10.00;9.33;;;;;21.53;57.98;98700.66;4868396;28;105778;-82
2021/07/23 03:00:24;;;;;;;;;9.00;8.33;;;;;21.57;57.83;98697.09;4870335;28;102393;-82
2021/07/23 03:02:51;;;;;;;;;10.00;8.33;;;;;21.60;57.41;98693.00;4883592;28;104197;-82
2021/07/23 03:05:18;;;;;;;;;9.67;9.33;;;;;21.59;57.45;98689.41;4880322;28;102832;-81
2021/07/23 03:07:45;;;;;;;;;11.00;10.00;;;;;21.56;57.52;98689.13;4860155;28;104317;-82
2021/07/23 03:10:13;;;;;;;;;8.33;8.33;;;;;21.56;57.43;98695.47;4865655;28;102165;-81
2021/07/23 03:12:40;;;;;;;;;8.00;8.00;;;;;21.54;57.79;98692.16;4881504;28;102458;-81
2021/07/23 03:15:07;;;;;;;;;8.33;8.33;;;;;21.54;57.83;98692.16;4880323;28;105973;-82
2021/07/23 03:17:35;;;;;;;;;9.33;9.00;;;;;21.52;58.05;98690.78;4884188;28;103818;-82
2021/07/23 03:20:02;;;;;;;;;10.67;8.67;;;;;21.55;57.45;98690.22;4877891;28;102739;-82
2021/07/23 03:22:30;;;;;;;;;7.00;7.00;;;;;21.54;57.72;98685.81;4882250;28;102282;-81
2021/07/23 03:24:57;;;;;;;;;9.00;8.33;;;;;21.48;57.71;98684.97;4883323;28;105008;-82
2021/07/23 03:27:24;;;;;;;;;7.67;7.67;;;;;21.49;57.64;98683.88;4872993;28;104367;-82
2021/07/23 03:29:52;;;;;;;;;9.00;9.00;;;;;21.51;57.59;98678.13;4867769;28;102847;-82
2021/07/23 03:32:19;;;;;;;;;9.33;8.00;;;;;21.51;57.84;98680.88;4859565;28;103087;-82
2021/07/23 03:34:46;;;;;;;;;9.00;9.00;;;;;21.53;57.60;98678.66;4857414;28;102859;-81
2021/07/23 03:37:14;;;;;;;;;9.00;8.00;;;;;21.53;57.48;98678.66;4860036;28;104098;-81
2021/07/23 03:39:42;;;;;;;;;8.00;7.00;;;;;21.52;57.33;98680.59;4854390;28;104163;-82
2021/07/23 03:42:09;;;;;;;;;8.00;8.00;;;;;21.52;57.32;98677.03;4850493;28;104112;-81
2021/07/23 03:44:36;;;;;;;;;10.00;7.67;;;;;21.51;57.44;98669.84;4872176;28;102667;-82
2021/07/23 03:47:03;;;;;;;;;7.33;7.33;;;;;21.52;57.69;98677.84;4858672;28;108771;-81
2021/07/23 03:49:30;;;;;;;;;8.67;8.00;;;;;21.49;57.35;98669.28;4854711;28;102934;-82
2021/07/23 03:51:58;;;;;;;;;8.00;8.00;;;;;21.46;57.29;98672.59;4867184;28;102793;-82
2021/07/23 03:54:25;;;;;;;;;8.00;8.00;;;;;21.51;57.15;98678.13;4856457;28;103321;-82
2021/07/23 03:56:53;;;;;;;;;12.00;10.67;;;;;21.51;57.69;98678.13;4852435;28;109176;-82
2021/07/23 03:59:21;;;;;;;;;7.00;7.00;;;;;21.53;57.05;98678.66;4857080;28;102617;-83
2021/07/23 04:01:48;;;;;;;;;8.67;8.00;;;;;21.54;57.10;98680.31;4836380;28;102793;-82
2021/07/23 04:04:16;;;;;;;;;11.67;9.00;;;;;21.54;57.89;98680.31;4853805;28;104764;-83
2021/07/23 04:06:43;;;;;;;;;10.00;8.00;;;;;21.52;56.74;98674.28;4855189;28;110631;-83
2021/07/23 04:09:10;;;;;;;;;7.67;7.00;;;;;21.50;57.78;98673.69;4848442;28;102974;-82
2021/07/23 04:11:47;;;;;;;;;10.00;9.00;;;;;21.49;57.28;98683.03;4870179;28;102946;-83
2021/07/23 04:14:14;;;;;;;;;7.00;7.00;;;;;21.46;57.16;98673.41;4799990;28;102514;-83
2021/07/23 04:16:42;;;;;;;;;10.00;9.67;;;;;21.46;57.35;98678.91;4850394;28;104256;-83
2021/07/23 04:19:09;;;;;;;;;9.00;8.00;;;;;21.48;57.56;98678.66;4868072;28;104454;-82
2021/07/23 04:21:36;;;;;;;;;10.67;8.33;;;;;21.47;56.87;98674.25;4866683;28;102952;-83
2021/07/23 04:24:05;;;;;;;;;12.00;10.00;;;;;21.43;58.01;98670.38;4865460;28;102456;-83
2021/07/23 04:26:33;;;;;;;;;9.33;9.00;;;;;21.46;57.49;98672.59;4849324;28;104639;-81
2021/07/23 04:29:00;;;;;;;;;9.00;8.33;;;;;21.47;57.00;98677.00;4845767;28;102535;-83
2021/07/23 04:31:28;;;;;;;;;10.67;10.00;;;;;21.46;57.70;98676.16;4874546;28;102501;-83
2021/07/23 04:33:59;;;;;;;;;11.00;10.67;;;;;21.43;57.67;98679.47;4891173;28;104504;-83
2021/07/23 04:36:27;;;;;;;;;8.67;8.67;;;;;21.46;57.23;98669.84;4876955;28;104229;-83
2021/07/23 04:38:54;;;;;;;;;8.00;8.00;;;;;21.46;57.44;98670.66;4882751;28;102580;-81
2021/07/23 04:41:21;;;;;;;;;9.00;8.00;;;;;21.47;57.77;98675.09;4890640;28;103569;-82
2021/07/23 04:43:49;;;;;;;;;9.67;9.00;;;;;21.46;57.62;98662.41;4883767;28;102630;-81
2021/07/23 04:46:22;;;;;;;;;8.67;8.67;;;;;21.49;57.61;98661.88;4885007;28;104097;-82
2021/07/23 04:48:49;;;;;;;;;8.67;8.33;;;;;21.47;57.18;98675.09;4882876;28;102576;-81
2021/07/23 04:51:16;;;;;;;;;9.00;8.00;;;;;21.51;56.98;98661.59;4885558;28;103640;-81
2021/07/23 04:53:43;;;;;;;;;8.33;7.67;;;;;21.48;57.06;98662.16;4885376;28;102969;-81
2021/07/23 04:56:10;;;;;;;;;8.33;7.33;;;;;21.48;57.34;98659.41;4888779;28;104056;-81
2021/07/23 04:58:37;;;;;;;;;9.00;7.00;;;;;21.46;57.13;98661.59;4890042;28;102813;-83
2021/07/23 05:01:05;;;;;;;;;9.00;9.00;;;;;21.48;56.76;98667.66;4887243;28;102425;-83
2021/07/23 05:03:38;;;;;;;;;12.67;10.33;;;;;21.46;57.27;98667.09;4887613;28;102487;-83
2021/07/23 05:06:06;;;;;;;;;8.33;7.67;;;;;21.47;57.21;98664.06;4894057;28;112413;-83
2021/07/23 05:08:36;;;;;;;;;9.33;8.67;;;;;21.45;57.00;98665.44;4890398;28;102656;-83
2021/07/23 05:11:07;;;;;;;;;10.33;8.00;;;;;21.46;57.61;98653.34;4879785;28;103817;-80
2021/07/23 05:13:34;;;;;;;;;7.67;7.33;;;;;21.40;57.93;98662.66;4885982;28;102913;-82
2021/07/23 05:16:02;;;;;;;;;10.00;9.00;;;;;21.42;57.26;98666.81;4895145;28;104566;-83
2021/07/23 05:18:30;;;;;;;;;6.00;5.67;;;;;21.45;57.57;98659.94;4874070;28;103676;-82
2021/07/23 05:20:57;;;;;;;;;10.33;8.33;;;;;21.43;58.00;98662.97;4890047;28;103501;-81
2021/07/23 05:23:24;;;;;;;;;8.33;8.00;;;;;21.40;57.60;98659.91;4892750;28;103781;-81
2021/07/23 05:25:51;;;;;;;;;8.33;8.33;;;;;21.44;57.58;98669.25;4889417;28;104485;-81
2021/07/23 05:28:19;;;;;;;;;9.33;8.33;;;;;21.40;57.94;98659.91;4894352;28;102090;-82
2021/07/23 05:31:04;;;;;;;;;9.67;8.67;;;;;21.38;57.91;98662.13;4876069;28;102747;-82
2021/07/23 05:33:31;;;;;;;;;10.33;8.33;;;;;21.37;57.62;98658.53;4864093;28;105890;-82
2021/07/23 05:35:58;;;;;;;;;8.00;7.33;;;;;21.39;58.09;98656.31;4880432;28;104233;-81
2021/07/23 05:38:26;;;;;;;;;7.67;7.67;;;;;21.42;57.21;98664.06;4866555;28;102754;-80
2021/07/23 05:40:53;;;;;;;;;9.33;8.33;;;;;21.47;57.97;98664.06;4862325;28;102421;-82
2021/07/23 05:43:20;;;;;;;;;8.67;7.00;;;;;21.54;59.28;98658.31;4876435;28;103607;-82
2021/07/23 05:45:47;;;;;;;;;7.33;6.00;;;;;21.56;59.07;98669.88;4868494;28;104288;-83
2021/07/23 05:48:15;;;;;;;;;8.00;7.33;;;;;21.55;58.82;98663.53;4870782;28;103766;-82
2021/07/23 05:50:42;;;;;;;;;7.00;7.00;;;;;21.56;59.10;98656.94;4872949;28;102631;-83
2021/07/23 05:53:09;;;;;;;;;7.00;7.00;;;;;21.53;59.11;98662.16;4867985;28;102548;-83
2021/07/23 05:55:36;;;;;;;;;7.00;7.00;;;;;21.57;59.43;98657.78;4871511;28;104057;-83
2021/07/23 05:58:03;;;;;;;;;8.33;8.33;;;;;21.56;59.17;98662.47;4870636;28;104175;-83
2021/07/23 06:00:30;;;;;;;;;8.00;7.33;;;;;21.57;59.07;98663.28;4844493;28;102710;-83
2021/07/23 06:03:04;;;;;;;;;8.00;7.00;;;;;21.58;59.84;98664.91;4871464;28;102978;-83
2021/07/23 06:05:32;;;;;;;;;7.67;7.33;;;;;21.60;59.49;98666.31;4848192;28;104201;-82
2021/07/23 06:08:05;;;;;;;;;8.67;7.00;;;;;21.59;59.83;98661.91;4863017;28;102318;-83
2021/07/23 06:10:34;;;;;;;;;8.67;7.00;;;;;21.61;58.36;98661.66;4873302;28;103738;-83
2021/07/23 06:13:06;;;;;;;;;8.67;8.00;;;;;21.59;59.00;98653.66;4802132;28;103305;-81
2021/07/23 06:15:34;;;;;;;;;6.00;5.33;;;;;21.59;59.04;98650.91;4837302;28;104149;-81
2021/07/23 06:18:57;;;;;;;;;8.67;7.67;;;;;21.62;59.16;98652.28;4851414;28;102568;-81
2021/07/23 06:21:25;;;;;;;;;7.67;7.00;;;;;21.61;59.49;98648.72;4798488;28;103463;-81
2021/07/23 06:23:52;;;;;;;;;8.33;7.67;;;;;21.64;58.47;98645.41;4864700;28;102517;-81
2021/07/23 06:26:19;;;;;;;;;9.00;8.00;;;;;21.66;59.46;98645.13;4864795;28;104239;-85
2021/07/23 06:28:47;;;;;;;;;7.00;7.00;;;;;21.66;59.07;98650.63;4866282;28;103490;-81
2021/07/23 06:31:15;;;;;;;;;7.67;6.33;;;;;21.67;60.41;98649.53;4866715;28;102510;-81
2021/07/23 06:33:42;;;;;;;;;7.33;7.00;;;;;21.71;59.31;98653.38;4872327;28;102514;-82
2021/07/23 06:36:09;;;;;;;;;6.00;6.00;;;;;21.71;60.06;98656.16;4882135;28;105412;-82
2021/07/23 06:38:36;;;;;;;;;7.00;7.00;;;;;21.74;59.75;98652.88;4880380;28;103664;-83
2021/07/23 06:41:08;;;;;;;;;8.67;8.33;;;;;21.74;59.55;98652.88;4856748;28;103245;-82
2021/07/23 06:43:36;;;;;;;;;9.33;8.33;;;;;21.74;59.36;98661.13;4808413;28;104714;-81
2021/07/23 06:46:04;;;;;;;;;8.00;7.33;;;;;21.75;59.18;98657.25;4846908;28;104281;-83
2021/07/23 06:48:32;;;;;;;;;8.00;7.33;;;;;21.77;59.95;98657.81;4836313;28;102650;-81
2021/07/23 06:51:02;;;;;;;;;8.00;7.00;;;;;21.77;59.64;98657.81;4876719;28;102500;-80
2021/07/23 06:53:29;;;;;;;;;7.00;7.00;;;;;21.76;60.02;98654.22;4885042;28;102177;-80
2021/07/23 06:55:56;;;;;;;;;1.00;0.67;;;;;21.78;59.89;98653.97;4889402;28;104274;-81
2021/07/23 06:58:23;;;;;;;;;9.00;7.67;;;;;21.76;60.49;98657.00;4881368;28;102353;-81
2021/07/23 07:00:51;;;;;;;;;8.00;7.67;;;;;21.80;60.37;98651.75;4871681;28;102577;-86
2021/07/23 07:03:19;;;;;;;;;7.00;7.00;;;;;21.81;60.31;98642.41;4784851;28;103396;-86
2021/07/23 07:05:50;;;;;;;;;9.00;8.00;;;;;21.83;60.41;98655.91;4861331;28;104407;-88
2021/07/23 07:08:18;;;;;;;;;7.00;6.00;;;;;21.85;59.88;98651.78;4892075;28;103609;-86
2021/07/23 07:10:45;;;;;;;;;5.67;5.67;;;;;21.85;60.25;98649.03;4884258;28;102980;-87
2021/07/23 07:13:12;;;;;;;;;6.00;6.00;;;;;21.87;60.41;98649.59;4876503;28;102522;-87
2021/07/23 07:15:39;;;;;;;;;8.67;6.33;;;;;21.88;60.74;98651.25;4886405;28;104294;-87
2021/07/23 07:18:06;;;;;;;;;6.67;6.00;;;;;21.88;60.70;98643.00;4888132;28;102651;-87
2021/07/23 07:20:34;;;;;;;;;6.67;6.67;;;;;21.89;60.99;98650.13;4896796;28;102668;-87
2021/07/23 07:23:01;;;;;;;;;7.33;7.33;;;;;21.90;60.69;98646.28;4883101;28;102577;-87
2021/07/23 07:25:31;;;;;;;;;6.00;6.00;;;;;21.90;61.07;98651.78;4893697;28;104450;-87
2021/07/23 07:27:58;;;;;;;;;7.00;7.00;;;;;21.91;61.27;98636.94;4885737;28;102685;-86
2021/07/23 07:30:25;;;;;;;;;7.00;6.00;;;;;21.94;61.35;98641.06;4874076;28;102565;-86
2021/07/23 07:32:52;;;;;;;;;8.67;7.00;;;;;21.94;60.89;98635.56;4879017;28;102674;-86
2021/07/23 07:35:20;;;;;;;;;7.33;7.33;;;;;21.95;61.13;98638.06;4885168;28;104144;-86
2021/07/23 07:37:47;;;;;;;;;6.33;6.33;;;;;21.84;60.79;98614.31;4873511;28;102237;-86
2021/07/23 07:40:14;;;;;;;;;7.33;6.33;;;;;22.00;61.35;98640.81;4907301;28;102309;-86
2021/07/23 07:42:41;;;;;;;;;5.67;5.67;;;;;22.00;61.07;98638.06;4888402;28;103204;-85
2021/07/23 07:45:09;;;;;;;;;8.67;8.67;;;;;22.02;61.17;98640.56;4895123;28;104339;-85
2021/07/23 07:47:36;;;;;;;;;7.33;7.33;;;;;22.03;61.17;98640.25;4883679;28;102495;-86
2021/07/23 07:50:04;;;;;;;;;7.00;6.67;;;;;22.05;61.08;98638.06;4880310;28;111023;-86
2021/07/23 07:52:31;;;;;;;;;6.00;6.00;;;;;22.06;61.28;98641.66;4886112;28;102559;-86
2021/07/23 07:54:58;;;;;;;;;10.00;9.33;;;;;22.07;61.21;98635.03;4884016;28;104394;-85
2021/07/23 07:57:26;;;;;;;;;6.00;6.00;;;;;22.08;61.35;98643.03;4890468;28;102542;-86
2021/07/23 07:59:53;;;;;;;;;6.67;6.67;;;;;22.10;61.30;98629.81;4893251;28;102659;-86
2021/07/23 08:02:20;;;;;;;;;8.00;8.00;;;;;22.10;61.47;98629.81;4882701;28;103928;-86
2021/07/23 08:04:48;;;;;;;;;10.00;8.33;;;;;22.09;61.41;98635.59;4902627;28;104366;-85
2021/07/23 08:07:20;;;;;;;;;8.67;7.33;;;;;22.14;61.86;98630.09;4880023;28;102415;-86
2021/07/23 08:09:52;;;;;;;;;7.67;7.33;;;;;22.06;61.51;98630.66;4885727;28;102509;-85
2021/07/23 08:12:22;;;;;;;;;8.67;8.00;;;;;22.15;61.75;98637.25;4876831;28;102198;-85
2021/07/23 08:14:50;;;;;;;;;7.00;6.00;;;;;22.17;61.85;98632.28;4898381;28;103868;-86
2021/07/23 08:17:17;;;;;;;;;7.33;6.00;;;;;22.19;61.90;98638.38;4867036;28;102458;-86
2021/07/23 08:19:44;;;;;;;;;8.67;8.33;;;;;22.18;61.82;98637.53;4898349;28;102554;-86
2021/07/23 08:22:11;;;;;;;;;8.67;7.67;;;;;22.18;61.88;98637.53;4891726;28;102812;-86
2021/07/23 08:24:39;;;;;;;;;6.33;6.33;;;;;22.18;61.79;98637.53;4896620;28;103946;-84
2021/07/23 08:27:06;;;;;;;;;8.00;7.00;;;;;22.20;61.81;98640.00;4908887;28;102388;-85
2021/07/23 08:29:33;;;;;;;;;8.33;6.67;;;;;22.20;61.88;98638.06;4866589;28;102511;-85
2021/07/23 08:32:11;;;;;;;;;8.33;7.00;;;;;22.22;61.81;98641.38;4898542;28;102709;-85
2021/07/23 08:34:38;;;;;;;;;6.33;6.33;;;;;22.24;61.70;98636.41;4903423;28;104181;-85
2021/07/23 08:37:05;;;;;;;;;7.33;7.33;;;;;22.24;61.61;98636.41;4884264;28;102610;-85
2021/07/23 08:39:33;;;;;;;;;8.67;7.67;;;;;22.24;61.78;98639.16;4884387;28;102735;-85
2021/07/23 08:42:26;;;;;;;;;8.67;8.00;;;;;22.28;61.73;98636.72;4893058;28;102249;-85
2021/07/23 08:44:54;;;;;;;;;7.67;7.67;;;;;22.29;61.83;98635.59;4880240;28;109910;-84
2021/07/23 08:47:21;;;;;;;;;7.33;7.00;;;;;22.30;61.87;98639.16;4905523;28;102065;-85
2021/07/23 08:49:49;;;;;;;;;7.00;7.00;;;;;22.31;61.86;98641.66;4902668;28;102232;-85
2021/07/23 08:52:16;;;;;;;;;9.00;7.67;;;;;22.31;61.83;98636.16;4887457;28;106030;-85
2021/07/23 08:54:44;;;;;;;;;10.33;9.67;;;;;22.34;61.70;98629.25;4892385;28;104039;-87
2021/07/23 08:57:11;;;;;;;;;8.00;7.67;;;;;22.35;61.68;98636.41;4892419;28;102436;-85
2021/07/23 08:59:38;;;;;;;;;7.33;7.00;;;;;22.33;61.80;98624.88;4896472;28;102473;-87
2021/07/23 09:02:06;;;;;;;;;7.67;6.67;;;;;22.36;61.72;98627.06;4902084;28;102451;-86
2021/07/23 09:04:35;;;;;;;;;9.33;9.00;;;;;22.38;61.89;98630.38;4889508;28;104096;-85
2021/07/23 09:07:14;;;;;;;;;7.67;6.67;;;;;22.38;61.72;98624.88;4874712;28;102960;-85
2021/07/23 09:09:41;;;;;;;;;6.33;6.00;;;;;22.38;61.62;98625.66;4907652;28;102728;-86
2021/07/23 09:12:09;;;;;;;;;7.00;6.67;;;;;22.40;62.03;98628.16;4895398;28;102749;-86
2021/07/23 09:14:36;;;;;;;;;6.67;6.00;;;;;22.41;61.49;98621.53;4902118;28;104080;-86
2021/07/23 09:17:04;;;;;;;;;7.67;7.67;;;;;22.41;61.77;98619.63;4895136;28;103217;-86
2021/07/23 09:19:32;;;;;;;;;7.33;7.33;;;;;22.42;61.84;98620.44;4893484;28;103571;-87
2021/07/23 09:21:59;;;;;;;;;7.00;6.33;;;;;22.43;61.71;98616.56;4906304;28;102592;-85
2021/07/23 09:24:50;;;;;;;;;6.33;6.00;;;;;22.44;61.61;98615.47;4886654;28;104537;-86
2021/07/23 09:27:33;;;;;;;;;8.00;6.67;;;;;22.45;61.59;98608.84;4874755;28;102232;-86
2021/07/23 09:30:06;;;;;;;;;9.67;8.00;;;;;22.47;61.50;98617.69;4843442;28;102669;-86
2021/07/23 09:32:33;;;;;;;;;9.00;9.00;;;;;22.47;61.60;98606.66;4894607;28;102465;-86
2021/07/23 09:35:13;;;;;;;;;9.00;8.67;;;;;22.49;61.71;98618.22;4896006;28;104366;-86
2021/07/23 09:38:01;;;;;;;;;7.67;7.33;;;;;22.48;61.84;98617.38;4898069;28;102616;-86
2021/07/23 09:40:40;;;;;;;;;10.67;8.00;;;;;22.50;61.65;98612.44;4837353;28;105061;-85
2021/07/23 09:43:07;;;;;;;;;7.67;6.67;;;;;22.52;61.73;98609.38;4894733;28;102926;-86
2021/07/23 09:45:35;;;;;;;;;7.00;6.67;;;;;22.52;61.61;98615.72;4912663;28;104262;-86
2021/07/23 09:48:12;;;;;;;;;7.00;7.00;;;;;22.51;61.91;98602.25;4892572;28;102721;-85
2021/07/23 09:50:44;;;;;;;;;8.00;7.33;;;;;22.50;61.61;98606.94;4872062;28;109529;-86
2021/07/23 09:53:12;;;;;;;;;9.00;8.00;;;;;22.53;61.89;98605.53;4900575;28;102625;-86
2021/07/23 09:55:40;;;;;;;;;6.00;6.00;;;;;22.55;61.60;98609.69;4891462;28;104419;-85
2021/07/23 09:58:07;;;;;;;;;11.67;7.67;;;;;22.55;61.54;98608.84;4875829;28;104144;-84
2021/07/23 10:00:38;;;;;;;;;8.00;6.67;;;;;22.55;61.62;98608.84;4900348;28;102258;-85
2021/07/23 10:03:07;;;;;;;;;8.67;7.67;;;;;22.53;61.41;98598.09;4888820;28;102517;-84
2021/07/23 10:05:37;;;;;;;;;7.67;7.67;;;;;22.56;61.74;98605.00;4893076;28;104328;-85
2021/07/23 10:08:05;;;;;;;;;7.00;7.00;;;;;22.54;61.88;98597.00;4905292;28;102478;-85
2021/07/23 10:10:33;;;;;;;;;8.33;8.00;;;;;22.58;61.57;98597.25;4867217;28;102474;-85
2021/07/23 10:13:00;;;;;;;;;8.67;8.67;;;;;22.58;61.64;98608.28;4865360;28;102938;-85
2021/07/23 10:15:27;;;;;;;;;7.67;6.33;;;;;22.58;61.68;98600.00;4864260;28;104256;-85
2021/07/23 10:17:55;;;;;;;;;6.67;6.67;;;;;22.58;61.32;98594.50;4890981;28;102554;-86
2021/07/23 10:20:22;;;;;;;;;9.67;8.67;;;;;22.57;61.55;98585.41;4897109;28;102703;-85
2021/07/23 10:22:52;;;;;;;;;8.00;6.67;;;;;22.60;61.65;98597.81;4894879;28;102415;-86
2021/07/23 10:25:25;;;;;;;;;6.00;5.33;;;;;22.63;61.60;98594.50;4864504;28;103095;-84
2021/07/23 10:27:53;;;;;;;;;7.00;7.00;;;;;22.63;61.81;98591.75;4887599;28;102243;-85
2021/07/23 10:30:33;;;;;;;;;11.33;10.00;;;;;22.64;61.51;98582.38;4886720;28;102554;-84
2021/07/23 10:33:01;;;;;;;;;6.67;6.33;;;;;22.63;61.51;98578.78;4839629;28;103149;-84
2021/07/23 10:35:30;;;;;;;;;8.00;7.67;;;;;22.66;61.60;98571.88;4894674;28;104154;-84
2021/07/23 10:37:57;;;;;;;;;7.00;6.00;;;;;22.67;61.41;98579.03;4885748;28;102162;-85
2021/07/23 10:40:33;;;;;;;;;8.00;7.00;;;;;22.68;61.67;98575.19;4903595;28;102485;-85
2021/07/23 10:43:00;;;;;;;;;8.00;6.00;;;;;22.67;61.84;98576.28;4895432;28;102272;-84
2021/07/23 10:45:43;;;;;;;;;8.67;6.00;;;;;22.67;61.53;98571.59;4883567;28;104101;-87
2021/07/23 10:48:16;;;;;;;;;12.00;7.67;;;;;22.71;61.87;98571.91;4894641;28;102427;-85
2021/07/23 10:50:47;;;;;;;;;7.00;7.00;;;;;22.72;61.62;98554.25;4873465;28;102618;-85
2021/07/23 10:53:31;;;;;;;;;9.00;7.33;;;;;22.73;61.52;98558.66;4877850;28;102632;-85
2021/07/23 10:55:59;;;;;;;;;6.00;6.00;;;;;22.76;61.50;98555.34;4884265;28;109661;-87
2021/07/23 10:58:26;;;;;;;;;7.67;7.67;;;;;22.76;61.51;98555.34;4893097;28;102694;-86
2021/07/23 11:00:55;;;;;;;;;7.00;6.33;;;;;22.75;61.67;98553.69;4883663;28;106686;-86
2021/07/23 11:03:39;;;;;;;;;7.00;7.00;;;;;22.74;61.75;98549.28;4894728;28;102831;-87
2021/07/23 11:06:16;;;;;;;;;7.00;7.00;;;;;22.77;61.67;98551.50;4833294;28;108815;-85
2021/07/23 11:09:06;;;;;;;;;7.67;7.00;;;;;22.78;61.43;98535.78;4883821;28;102496;-86
2021/07/23 11:11:33;;;;;;;;;7.00;7.00;;;;;22.80;61.31;98539.88;4834908;28;105836;-86
2021/07/23 11:14:14;;;;;;;;;6.67;6.67;;;;;22.81;61.45;98547.06;4893739;28;102694;-86
2021/07/23 11:16:41;;;;;;;;;8.00;7.33;;;;;22.83;61.28;98539.31;4890269;28;103388;-86
2021/07/23 11:19:08;;;;;;;;;7.00;6.00;;;;;22.83;61.44;98539.31;4898296;28;103865;-85
2021/07/23 11:21:36;;;;;;;;;7.00;7.00;;;;;22.73;61.22;98522.84;4856452;28;102720;-86
2021/07/23 11:24:13;;;;;;;;;8.00;7.00;;;;;22.85;61.40;98536.28;4891688;28;102550;-86
2021/07/23 11:26:54;;;;;;;;;8.33;7.67;;;;;22.85;61.39;98531.59;4897635;28;103771;-86
2021/07/23 11:29:31;;;;;;;;;8.67;7.00;;;;;22.85;61.37;98537.13;4889407;28;102828;-86
2021/07/23 11:32:09;;;;;;;;;8.00;6.00;;;;;22.87;61.38;98528.56;4870068;28;103794;-86
2021/07/23 11:34:41;;;;;;;;;7.67;6.33;;;;;22.87;61.25;98529.41;4819011;28;103367;-86
2021/07/23 11:37:13;;;;;;;;;7.33;6.67;;;;;22.88;61.23;98531.03;4875973;28;108894;-86